Time;durP1;ratioP1;P1;durP2;ratioP2;P2;SDS_P1;SDS_P2;PMS_P1;PMS_P2;Temp;Humidity;BMP_temperature;BMP_pressure;BME280_temperature;BME280_humidity;BME280_pressure;Samples;Min_cycle;Max_cycle;Signal;HPM_P1;HPM_P2
2023/10/08 00:02:22;;;;;;;;;5.50;4.00;;;;;19.13;81.58;102276.91;5005070;28;9616;-71
2023/10/08 00:04:50;;;;;;;;;6.50;4.25;;;;;19.13;81.72;102271.44;5015816;28;8844;-71
2023/10/08 00:07:21;;;;;;;;;7.00;5.00;;;;;19.13;81.56;102276.91;5021985;28;8847;-71
2023/10/08 00:09:51;;;;;;;;;5.00;5.00;;;;;19.13;81.57;102265.16;5025238;28;9579;-71
2023/10/08 00:12:19;;;;;;;;;4.25;4.00;;;;;19.08;81.60;102257.63;5015819;28;9521;-71
2023/10/08 00:14:49;;;;;;;;;8.50;8.50;;;;;19.02;81.69;102253.84;5021703;28;8837;-71
2023/10/08 00:17:19;;;;;;;;;9.50;8.50;;;;;18.99;81.84;102259.72;5005057;28;8865;-71
2023/10/08 00:19:52;;;;;;;;;8.75;5.50;;;;;18.99;81.90;102259.72;4989920;28;8869;-71
2023/10/08 00:22:19;;;;;;;;;8.75;7.00;;;;;18.99;81.81;102261.63;5010190;28;8858;-71
2023/10/08 00:24:46;;;;;;;;;9.00;7.75;;;;;18.96;81.72;102267.53;5012399;28;8843;-71
2023/10/08 00:27:17;;;;;;;;;8.00;6.00;;;;;18.97;81.88;102250.94;5008104;28;8913;-71
2023/10/08 00:29:45;;;;;;;;;5.75;5.25;;;;;19.01;81.75;102237.69;5009417;28;8874;-71
2023/10/08 00:32:11;;;;;;;;;6.25;6.25;;;;;19.01;81.51;102235.81;5006957;28;9561;-71
2023/10/08 00:34:41;;;;;;;;;8.50;7.50;;;;;19.02;81.45;102232.00;5029163;28;8833;-71
2023/10/08 00:37:10;;;;;;;;;5.50;5.50;;;;;19.06;81.39;102226.13;5015448;28;9547;-71
2023/10/08 00:39:39;;;;;;;;;5.75;4.75;;;;;19.07;81.20;102219.59;5012336;28;8901;-71
2023/10/08 00:42:07;;;;;;;;;7.00;7.00;;;;;19.07;81.24;102217.72;5007160;28;8870;-71
2023/10/08 00:44:41;;;;;;;;;6.75;4.50;;;;;19.08;80.92;102215.81;5019866;28;9606;-71
2023/10/08 00:47:11;;;;;;;;;6.75;5.25;;;;;19.08;80.70;102213.94;5009557;28;9554;-71
2023/10/08 00:54:55;;;;;;;;;5.00;4.00;;;;;19.08;80.69;102230.31;4992185;28;8854;-71
2023/10/08 00:57:25;;;;;;;;;5.00;5.00;;;;;19.06;80.70;102226.97;4991764;28;8833;-71
2023/10/08 00:59:59;;;;;;;;;5.25;3.75;;;;;19.06;80.75;102232.41;5014300;28;8844;-71
2023/10/08 01:02:44;;;;;;;;;5.75;5.75;;;;;19.06;80.68;102231.59;5011705;28;8840;-71
2023/10/08 01:05:23;;;;;;;;;6.25;3.75;;;;;19.05;80.97;102217.09;5010597;28;8922;-71
2023/10/08 01:07:51;;;;;;;;;7.00;5.00;;;;;19.02;80.91;102226.56;5017409;28;9572;-70
2023/10/08 01:10:20;;;;;;;;;6.00;6.00;;;;;19.03;80.86;102232.84;5017858;28;8969;-70
2023/10/08 01:15:28;;;;;;;;;5.75;5.50;;;;;19.01;80.99;102245.88;5030863;28;8832;-71
2023/10/08 01:18:01;;;;;;;;;7.75;5.00;;;;;18.99;81.04;102259.72;5030702;28;8836;-71
2023/10/08 01:20:34;;;;;;;;;4.00;4.00;;;;;18.97;81.09;102267.31;5027053;28;8863;-71
2023/10/08 01:23:09;;;;;;;;;8.00;5.00;;;;;18.96;81.13;102271.09;5008903;28;8855;-71
2023/10/08 01:25:37;;;;;;;;;4.75;4.75;;;;;18.96;81.22;102264.81;5018976;28;8932;-71
2023/10/08 01:28:11;;;;;;;;;4.50;4.00;;;;;18.94;81.07;102281.38;5010733;28;8822;-71
2023/10/08 01:30:41;;;;;;;;;5.00;5.00;;;;;18.94;81.16;102283.25;5011094;28;9671;-71
2023/10/08 01:33:13;;;;;;;;;5.75;4.50;;;;;18.91;81.35;102278.22;5010908;28;8839;-71
2023/10/08 01:35:40;;;;;;;;;4.75;4.25;;;;;18.92;81.25;102290.81;5015654;28;8825;-71
2023/10/08 01:38:13;;;;;;;;;4.75;4.50;;;;;18.91;81.32;102298.16;5010368;28;8882;-71
2023/10/08 01:40:40;;;;;;;;;3.75;3.75;;;;;18.90;81.50;102303.84;5010417;28;8830;-71
2023/10/08 01:43:08;;;;;;;;;7.50;5.75;;;;;18.88;81.49;102315.00;5002802;28;8869;-71
2023/10/08 01:45:42;;;;;;;;;8.25;6.50;;;;;18.89;81.55;102319.38;5010735;28;8870;-71
2023/10/08 01:48:10;;;;;;;;;9.00;7.00;;;;;18.88;81.57;102322.31;5008345;28;8849;-71
2023/10/08 01:50:37;;;;;;;;;6.50;6.50;;;;;18.86;81.47;102308.88;5028660;28;8878;-70
2023/10/08 01:53:09;;;;;;;;;10.00;9.00;;;;;18.86;81.54;102310.78;5028984;28;8825;-71
2023/10/08 01:55:45;;;;;;;;;6.75;6.00;;;;;18.85;81.54;102314.56;5012610;28;8858;-71
2023/10/08 01:58:14;;;;;;;;;6.25;6.00;;;;;18.84;81.42;102323.78;5015418;28;8838;-71
2023/10/08 02:00:48;;;;;;;;;7.00;7.00;;;;;18.82;81.47;102315.81;5004632;28;9000;-71
2023/10/08 02:03:17;;;;;;;;;8.25;8.25;;;;;18.80;81.46;102287.94;5001851;28;8866;-72
2023/10/08 02:05:45;;;;;;;;;7.25;7.25;;;;;18.77;81.62;102293.81;5005828;28;8969;-71
2023/10/08 02:08:13;;;;;;;;;7.75;7.50;;;;;18.71;81.70;102302.81;5025961;28;9546;-71
2023/10/08 02:10:42;;;;;;;;;9.75;8.00;;;;;18.70;81.68;102315.63;5009206;28;8839;-70
2023/10/08 02:13:10;;;;;;;;;14.75;8.50;;;;;18.70;81.61;102301.16;5010266;28;8997;-70
2023/10/08 02:15:41;;;;;;;;;10.25;7.75;;;;;18.70;81.57;102299.28;5003260;28;8929;-70
2023/10/08 02:18:08;;;;;;;;;9.00;8.75;;;;;18.67;81.47;102309.72;5007655;28;8871;-71
2023/10/08 02:20:35;;;;;;;;;8.00;6.00;;;;;18.65;81.69;102309.13;5016821;28;8819;-71
2023/10/08 02:23:02;;;;;;;;;7.25;7.00;;;;;18.64;81.74;102307.44;5026161;28;8951;-71
2023/10/08 02:25:28;;;;;;;;;8.75;8.00;;;;;18.64;81.77;102300.09;5000994;28;8855;-71
2023/10/08 02:27:55;;;;;;;;;9.75;6.75;;;;;18.65;81.79;102277.22;5016820;28;8832;-70
2023/10/08 02:30:21;;;;;;;;;7.00;6.00;;;;;18.62;81.79;102272.19;5013488;28;8881;-70
2023/10/08 02:32:49;;;;;;;;;8.00;7.00;;;;;18.62;81.78;102290.44;5007627;28;9619;-71
2023/10/08 02:35:16;;;;;;;;;13.25;11.50;;;;;18.58;81.81;102325.47;5022352;28;8844;-71
2023/10/08 02:37:45;;;;;;;;;8.00;7.25;;;;;18.57;82.03;102332.00;5014000;28;8884;-70
2023/10/08 02:40:27;;;;;;;;;10.50;7.75;;;;;18.55;81.85;102323.16;5007486;28;8839;-70
2023/10/08 02:42:58;;;;;;;;;15.25;11.50;;;;;18.52;81.98;102308.09;5017562;28;9567;-71
2023/10/08 02:45:26;;;;;;;;;6.25;5.75;;;;;18.22;81.13;102318.56;5007179;28;8859;-71
2023/10/08 02:47:54;;;;;;;;;3.75;3.75;;;;;17.87;81.84;102314.34;5008418;28;8855;-71
2023/10/08 02:50:22;;;;;;;;;4.00;2.00;;;;;17.53;82.65;102324.28;5030550;28;8844;-71
2023/10/08 02:52:51;;;;;;;;;5.00;3.50;;;;;17.41;83.22;102320.47;5009319;28;8823;-71
2023/10/08 02:55:33;;;;;;;;;2.00;1.00;;;;;17.40;84.24;102313.34;5018065;28;9005;-71
2023/10/08 02:58:03;;;;;;;;;1.00;1.00;;;;;17.43;84.47;102332.00;5010639;28;8855;-71
2023/10/08 03:00:33;;;;;;;;;0.25;0.25;;;;;17.39;84.14;102342.44;5012786;28;8847;-71
2023/10/08 03:03:02;;;;;;;;;1.50;1.50;;;;;17.35;84.04;102337.63;5018272;28;9629;-71
2023/10/08 03:05:35;;;;;;;;;2.00;1.25;;;;;17.25;83.92;102338.81;5008429;28;8851;-71
2023/10/08 03:08:10;;;;;;;;;2.25;2.25;;;;;17.21;84.29;102318.47;5007216;28;9566;-71
2023/10/08 03:10:38;;;;;;;;;0.75;0.75;;;;;17.16;83.58;102329.13;5017554;28;8867;-71
2023/10/08 03:13:05;;;;;;;;;1.00;0.50;;;;;17.08;83.40;102333.91;5008854;28;8869;-71
2023/10/08 03:15:40;;;;;;;;;2.25;1.00;;;;;17.01;83.91;102336.59;5023809;28;8836;-71
2023/10/08 03:18:10;;;;;;;;;1.00;1.00;;;;;17.05;84.28;102356.91;5021143;28;8951;-71
2023/10/08 03:20:44;;;;;;;;;2.00;1.00;;;;;17.05;83.97;102395.00;5009991;28;8881;-71
2023/10/08 03:23:22;;;;;;;;;2.00;1.00;;;;;17.03;83.58;102391.66;5010387;28;9692;-70
2023/10/08 03:26:01;;;;;;;;;0.00;0.00;;;;;17.04;83.76;102377.00;5022099;28;8918;-70
2023/10/08 03:28:30;;;;;;;;;0.50;0.50;;;;;17.05;83.54;102371.38;5015167;28;8840;-70
2023/10/08 03:31:05;;;;;;;;;0.50;0.50;;;;;16.96;82.36;102358.94;5017359;28;8867;-70
2023/10/08 03:33:34;;;;;;;;;0.00;0.00;;;;;16.85;82.41;102391.31;5010388;28;8849;-70
2023/10/08 03:36:14;;;;;;;;;0.00;0.00;;;;;16.79;82.04;102387.50;4989106;28;8863;-70
2023/10/08 03:38:52;;;;;;;;;2.00;0.00;;;;;16.75;82.24;102387.06;5019070;28;8844;-70
2023/10/08 03:41:27;;;;;;;;;0.00;0.00;;;;;16.70;81.71;102400.38;5013578;28;8961;-70
2023/10/08 03:44:01;;;;;;;;;0.25;0.00;;;;;16.72;81.87;102390.13;5008134;28;8946;-70
2023/10/08 03:46:29;;;;;;;;;0.00;0.00;;;;;16.73;81.67;102394.59;5007668;28;8871;-69
2023/10/08 03:48:57;;;;;;;;;0.75;0.00;;;;;16.71;81.85;102431.97;5007947;28;8831;-69
2023/10/08 03:51:27;;;;;;;;;0.00;0.00;;;;;16.70;81.36;102449.31;5012025;28;8957;-69
2023/10/08 03:56:36;;;;;;;;;0.00;0.00;;;;;16.82;81.38;102451.56;5002701;28;8934;-70
2023/10/08 03:59:12;;;;;;;;;0.00;0.00;;;;;16.80;80.87;102454.44;5027107;28;8831;-69
2023/10/08 04:01:43;;;;;;;;;0.75;0.00;;;;;16.79;80.90;102436.47;5006597;28;8834;-72
2023/10/08 04:04:13;;;;;;;;;0.00;0.00;;;;;16.78;81.14;102440.22;4999806;28;9543;-69
2023/10/08 04:06:54;;;;;;;;;0.00;0.00;;;;;16.73;80.58;102429.94;5013733;28;8836;-71
2023/10/08 04:11:55;;;;;;;;;0.75;0.75;;;;;16.69;81.21;102441.34;5014530;28;8936;-71
2023/10/08 04:14:25;;;;;;;;;1.00;1.00;;;;;16.72;81.57;102428.19;5012131;28;8988;-71
2023/10/08 04:16:52;;;;;;;;;0.75;0.00;;;;;16.71;81.17;102421.09;5014800;28;8854;-71
2023/10/08 04:19:21;;;;;;;;;1.00;1.00;;;;;16.71;81.21;102406.66;5015098;28;8823;-71
2023/10/08 04:21:53;;;;;;;;;3.00;1.50;;;;;16.60;81.31;102397.13;5017080;28;8866;-71
2023/10/08 04:24:34;;;;;;;;;2.75;2.50;;;;;16.52;82.40;102389.13;5029317;28;8843;-71
2023/10/08 04:27:09;;;;;;;;;1.00;1.00;;;;;16.51;82.47;102391.00;5028967;28;8828;-71
2023/10/08 04:29:37;;;;;;;;;1.75;1.75;;;;;16.54;82.34;102392.50;5024958;28;8860;-71
2023/10/08 04:32:07;;;;;;;;;2.75;2.00;;;;;16.50;82.20;102408.38;5003979;28;8890;-71
2023/10/08 04:34:35;;;;;;;;;4.75;3.75;;;;;16.30;82.92;102421.75;5014760;28;8827;-71
2023/10/08 04:37:12;;;;;;;;;3.00;3.00;;;;;16.22;83.29;102431.91;5015806;28;8866;-71
2023/10/08 04:39:46;;;;;;;;;3.00;3.00;;;;;16.13;84.14;102441.22;5019331;28;8905;-71
2023/10/08 04:42:14;;;;;;;;;2.75;1.75;;;;;16.10;84.63;102445.16;5010456;28;8823;-71
2023/10/08 04:44:40;;;;;;;;;3.67;3.67;;;;;16.04;85.05;102448.63;5009723;28;8826;-71
2023/10/08 04:47:31;;;;;;;;;1.25;1.00;;;;;16.12;85.29;102448.50;5004798;28;8957;-71
2023/10/08 04:49:56;;;;;;;;;2.25;1.25;;;;;16.24;84.71;102451.56;5020465;28;8921;-71
2023/10/08 04:52:25;;;;;;;;;2.75;2.75;;;;;16.20;83.46;102442.97;5017364;28;8857;-71
2023/10/08 04:54:51;;;;;;;;;3.75;3.00;;;;;16.14;83.45;102446.47;5006135;28;8830;-71
2023/10/08 04:57:22;;;;;;;;;3.25;1.75;;;;;16.13;82.43;102443.94;5017504;28;9083;-71
2023/10/08 04:59:53;;;;;;;;;1.00;1.00;;;;;16.01;82.31;102449.03;5008101;28;8835;-72
2023/10/08 05:04:56;;;;;;;;;0.75;0.25;;;;;16.00;82.94;102466.34;5018911;28;8826;-71
2023/10/08 05:12:37;;;;;;;;;0.00;0.00;;;;;16.01;80.98;102468.88;5012736;28;8831;-71
2023/10/08 05:20:19;;;;;;;;;0.75;0.75;;;;;15.85;79.74;102477.25;5000407;28;8833;-71
2023/10/08 05:22:55;;;;;;;;;0.00;0.00;;;;;15.78;80.65;102469.00;5018830;28;8847;-71
2023/10/08 05:25:35;;;;;;;;;0.25;0.25;;;;;15.78;80.44;102465.44;5012455;28;8839;-71
2023/10/08 05:28:09;;;;;;;;;1.25;1.00;;;;;15.75;80.62;102472.09;5012385;28;8866;-71
2023/10/08 05:30:41;;;;;;;;;1.75;1.00;;;;;15.67;81.11;102490.34;5001146;28;8830;-71
2023/10/08 05:33:44;;;;;;;;;0.00;0.00;;;;;15.73;82.00;102506.75;5014645;28;8848;-71
2023/10/08 05:36:18;;;;;;;;;1.00;1.00;;;;;15.60;81.15;102514.69;5015650;28;8812;-71
2023/10/08 05:39:00;;;;;;;;;2.00;0.00;;;;;15.61;81.64;102502.78;5023339;28;8834;-71
2023/10/08 05:41:28;;;;;;;;;0.75;0.75;;;;;15.61;81.74;102482.94;5033732;28;8836;-71
2023/10/08 05:44:13;;;;;;;;;3.00;1.50;;;;;15.67;81.92;102480.34;5024073;28;8809;-71
2023/10/08 06:05:20;;;;;;;;;0.00;0.00;;;;;15.60;80.73;102503.81;5034752;28;8819;-71
2023/10/08 06:16:05;;;;;;;;;1.00;1.00;;;;;15.45;79.98;102514.66;5009225;28;8835;-71
2023/10/08 06:18:33;;;;;;;;;0.00;0.00;;;;;15.49;79.91;102523.28;5024514;28;8925;-71
2023/10/08 06:21:08;;;;;;;;;0.00;0.00;;;;;15.57;79.70;102526.75;5012685;28;9734;-71
2023/10/08 06:23:37;;;;;;;;;0.00;0.00;;;;;15.67;78.97;102521.06;5022908;28;8935;-71
2023/10/08 06:28:38;;;;;;;;;0.00;0.00;;;;;15.73;78.55;102533.06;5033724;28;9763;-71
2023/10/08 06:31:11;;;;;;;;;0.00;0.00;;;;;15.60;78.14;102539.09;5019196;28;8835;-71
2023/10/08 06:33:40;;;;;;;;;0.00;0.00;;;;;15.53;77.37;102535.44;5008986;28;8859;-71
2023/10/08 06:38:39;;;;;;;;;0.00;0.00;;;;;15.40;78.57;102543.38;5022882;28;8906;-71
2023/10/08 06:43:51;;;;;;;;;0.00;0.00;;;;;15.50;78.10;102539.34;5020276;28;8839;-70
2023/10/08 06:46:22;;;;;;;;;0.00;0.00;;;;;15.53;78.13;102536.28;5024032;28;8874;-71
2023/10/08 06:48:53;;;;;;;;;0.00;0.00;;;;;15.60;77.29;102549.97;5008763;28;9145;-70
2023/10/08 06:51:21;;;;;;;;;0.00;0.00;;;;;15.59;77.45;102545.53;5012321;28;8832;-71
2023/10/08 06:53:48;;;;;;;;;0.00;0.00;;;;;15.59;77.21;102548.25;5013176;28;8912;-71
2023/10/08 06:56:16;;;;;;;;;0.00;0.00;;;;;15.65;77.05;102547.56;5025302;28;8948;-71
2023/10/08 06:58:48;;;;;;;;;0.00;0.00;;;;;15.71;77.28;102552.22;5022353;28;8821;-71
2023/10/08 07:01:21;;;;;;;;;0.00;0.00;;;;;15.74;77.04;102545.59;5014216;28;8846;-70
2023/10/08 07:03:51;;;;;;;;;0.00;0.00;;;;;15.76;76.02;102557.97;5027910;28;8845;-70
2023/10/08 07:06:31;;;;;;;;;0.00;0.00;;;;;15.61;76.33;102570.66;5010739;28;8840;-70
2023/10/08 07:08:59;;;;;;;;;0.00;0.00;;;;;15.48;76.36;102567.72;5017918;28;8827;-71
2023/10/08 07:11:27;;;;;;;;;0.00;0.00;;;;;15.50;76.46;102554.81;5014193;28;9625;-70
2023/10/08 07:13:54;;;;;;;;;0.00;0.00;;;;;15.53;76.77;102558.00;5025775;28;8847;-70
2023/10/08 07:16:21;;;;;;;;;0.00;0.00;;;;;15.63;76.64;102560.44;5017180;28;8832;-70
2023/10/08 07:19:01;;;;;;;;;0.00;0.00;;;;;15.69;76.00;102553.47;5009785;28;8958;-70
2023/10/08 07:21:39;;;;;;;;;0.25;0.00;;;;;15.65;75.57;102550.28;5011592;28;8853;-70
2023/10/08 07:24:15;;;;;;;;;1.00;0.00;;;;;15.63;76.38;102555.00;5025299;28;9546;-70
2023/10/08 07:26:46;;;;;;;;;0.00;0.00;;;;;15.64;76.60;102554.00;5016730;28;8901;-70
2023/10/08 07:29:17;;;;;;;;;0.00;0.00;;;;;15.71;76.83;102564.97;5008874;28;8812;-70
2023/10/08 07:31:52;;;;;;;;;0.00;0.00;;;;;15.74;76.66;102581.72;5011829;28;8817;-70
2023/10/08 07:36:51;;;;;;;;;1.00;0.00;;;;;15.62;75.54;102587.78;5018611;28;8948;-70
2023/10/08 07:42:01;;;;;;;;;0.00;0.00;;;;;15.53;76.25;102600.59;5033353;28;8843;-70
2023/10/08 07:44:28;;;;;;;;;0.75;0.00;;;;;15.61;75.81;102599.66;5008992;28;9534;-70
2023/10/08 07:46:54;;;;;;;;;0.75;0.00;;;;;15.62;75.99;102585.91;5008714;28;8842;-70
2023/10/08 07:49:25;;;;;;;;;0.67;0.67;;;;;15.53;74.52;102593.28;4993761;28;8877;-70
2023/10/08 07:51:52;;;;;;;;;0.75;0.75;;;;;15.42;75.24;102598.31;5006769;28;9054;-70
2023/10/08 07:54:22;;;;;;;;;0.00;0.00;;;;;15.38;75.28;102610.56;5003597;28;8838;-70
2023/10/08 07:56:57;;;;;;;;;0.00;0.00;;;;;15.43;75.45;102602.69;5010782;28;8840;-70
2023/10/08 07:59:24;;;;;;;;;0.00;0.00;;;;;15.39;75.15;102599.50;5013031;28;8835;-70
2023/10/08 08:01:53;;;;;;;;;0.00;0.00;;;;;15.42;75.52;102599.16;5006085;28;8906;-70
2023/10/08 08:04:23;;;;;;;;;1.00;0.00;;;;;15.50;75.11;102592.81;5002676;28;8835;-71
2023/10/08 08:06:50;;;;;;;;;0.00;0.00;;;;;15.48;75.17;102600.31;5009743;28;8877;-70
2023/10/08 08:09:19;;;;;;;;;0.00;0.00;;;;;15.44;74.87;102596.28;5007524;28;8843;-70
2023/10/08 08:11:47;;;;;;;;;0.00;0.00;;;;;15.41;75.24;102605.59;5008431;28;8931;-70
2023/10/08 08:14:16;;;;;;;;;0.00;0.00;;;;;15.44;75.78;102621.53;5009773;28;8991;-71
2023/10/08 08:16:47;;;;;;;;;0.00;0.00;;;;;15.50;75.25;102630.81;5004888;28;8846;-72
2023/10/08 08:19:16;;;;;;;;;0.00;0.00;;;;;15.54;75.54;102643.81;4989277;28;8908;-70
2023/10/08 08:21:45;;;;;;;;;0.00;0.00;;;;;15.64;75.57;102643.59;5025935;28;8889;-71
2023/10/08 08:24:28;;;;;;;;;0.00;0.00;;;;;15.73;75.23;102649.81;5024843;28;8921;-71
2023/10/08 08:27:07;;;;;;;;;0.00;0.00;;;;;15.83;74.72;102648.50;5005341;28;8974;-71
2023/10/08 08:29:44;;;;;;;;;0.00;0.00;;;;;15.90;74.53;102653.19;5020874;28;8991;-70
2023/10/08 08:32:15;;;;;;;;;0.00;0.00;;;;;15.87;73.93;102639.97;5012237;28;8869;-70
2023/10/08 08:34:43;;;;;;;;;0.00;0.00;;;;;15.85;74.50;102644.78;5013926;28;8819;-70
2023/10/08 08:37:11;;;;;;;;;0.00;0.00;;;;;15.88;74.50;102644.38;5006708;28;9581;-70
2023/10/08 08:39:39;;;;;;;;;0.00;0.00;;;;;15.91;73.93;102633.16;5013222;28;8885;-70
2023/10/08 08:42:05;;;;;;;;;0.00;0.00;;;;;15.87;73.46;102643.53;5008070;28;8843;-69
2023/10/08 08:44:36;;;;;;;;;0.00;0.00;;;;;15.85;74.19;102640.19;5005780;28;8857;-71
2023/10/08 08:47:04;;;;;;;;;0.50;0.00;;;;;15.88;74.25;102647.09;5002133;28;8859;-70
2023/10/08 08:49:34;;;;;;;;;0.00;0.00;;;;;15.85;74.10;102647.50;5006702;28;8835;-70
2023/10/08 08:52:00;;;;;;;;;0.00;0.00;;;;;15.89;74.53;102646.09;5011488;28;8871;-70
2023/10/08 08:54:30;;;;;;;;;0.00;0.00;;;;;15.81;74.11;102628.84;5011961;28;8826;-70
2023/10/08 08:57:01;;;;;;;;;0.00;0.00;;;;;15.86;74.03;102631.00;5012984;28;8901;-70
2023/10/08 08:59:31;;;;;;;;;0.75;0.00;;;;;15.83;73.81;102620.50;5012927;28;8835;-70
2023/10/08 09:01:59;;;;;;;;;0.50;0.00;;;;;15.89;73.98;102632.50;5011398;28;8867;-70
2023/10/08 09:04:32;;;;;;;;;0.00;0.00;;;;;15.92;73.27;102633.00;5013059;28;8880;-70
2023/10/08 09:07:05;;;;;;;;;0.00;0.00;;;;;15.95;73.52;102629.88;5012389;28;8866;-70
2023/10/08 09:09:33;;;;;;;;;0.25;0.00;;;;;15.92;73.21;102637.53;5011399;28;8847;-70
2023/10/08 09:12:00;;;;;;;;;0.00;0.00;;;;;15.84;72.19;102638.50;5011532;28;8858;-71
2023/10/08 09:14:34;;;;;;;;;0.00;0.00;;;;;15.77;72.61;102641.09;5012809;28;8847;-72
2023/10/08 09:17:04;;;;;;;;;0.50;0.00;;;;;15.71;71.65;102649.13;5012658;28;8933;-70
2023/10/08 09:19:36;;;;;;;;;0.00;0.00;;;;;15.66;72.55;102657.00;5012492;28;8932;-71
2023/10/08 09:22:05;;;;;;;;;0.00;0.00;;;;;15.73;72.39;102661.50;5032752;22;9035;-68
2023/10/08 09:24:39;;;;;;;;;0.00;0.00;;;;;15.73;72.40;102638.94;5001415;28;8848;-67
2023/10/08 09:27:07;;;;;;;;;0.00;0.00;;;;;15.75;72.59;102635.00;4995291;28;9036;-67
2023/10/08 09:29:39;;;;;;;;;0.00;0.00;;;;;15.63;71.94;102647.31;5006006;28;8852;-69
2023/10/08 09:32:13;;;;;;;;;0.00;0.00;;;;;15.57;72.34;102653.47;5023977;28;8965;-68
2023/10/08 09:34:41;;;;;;;;;0.00;0.00;;;;;15.56;72.57;102649.09;5029783;28;8845;-67
2023/10/08 09:37:08;;;;;;;;;0.75;0.00;;;;;15.64;72.27;102642.72;5017641;28;8984;-66
2023/10/08 09:39:37;;;;;;;;;0.00;0.00;;;;;15.66;72.27;102651.56;5030799;28;8821;-66
2023/10/08 09:42:06;;;;;;;;;1.67;0.00;;;;;15.69;72.06;102643.06;5030631;28;8877;-66
2023/10/08 09:44:34;;;;;;;;;0.00;0.00;;;;;15.73;72.53;102641.66;5012842;28;8986;-66
2023/10/08 09:47:06;;;;;;;;;0.00;0.00;;;;;15.75;72.41;102645.84;5012623;28;8845;-66
2023/10/08 09:49:38;;;;;;;;;0.00;0.00;;;;;15.86;72.61;102647.28;5030700;28;8971;-66
2023/10/08 09:52:06;;;;;;;;;0.00;0.00;;;;;15.97;72.17;102637.84;5012828;28;8860;-66
2023/10/08 09:54:43;;;;;;;;;0.00;0.00;;;;;16.06;71.87;102643.00;5012661;28;8842;-66
2023/10/08 09:57:11;;;;;;;;;0.33;0.00;;;;;16.15;71.81;102635.59;5028942;28;8866;-66
2023/10/08 09:59:38;;;;;;;;;0.75;0.75;;;;;16.18;71.39;102640.66;5012802;28;8922;-66
2023/10/08 10:02:09;;;;;;;;;0.25;0.00;;;;;16.26;71.58;102642.44;5029366;28;9019;-66
2023/10/08 10:04:43;;;;;;;;;0.00;0.00;;;;;16.24;70.85;102623.59;5012625;28;8830;-66
2023/10/08 10:07:14;;;;;;;;;0.00;0.00;;;;;16.25;71.15;102630.75;5030075;28;8849;-65
2023/10/08 10:09:46;;;;;;;;;0.00;0.00;;;;;16.31;71.31;102634.56;5012415;28;8865;-65
2023/10/08 10:12:18;;;;;;;;;0.00;0.00;;;;;16.37;71.02;102638.44;5012429;28;8850;-66
2023/10/08 10:14:47;;;;;;;;;0.00;0.00;;;;;16.44;71.18;102623.84;5030070;28;8864;-66
2023/10/08 10:17:22;;;;;;;;;0.00;0.00;;;;;16.49;70.88;102634.19;5030045;28;8899;-66
2023/10/08 10:20:13;;;;;;;;;0.25;0.00;;;;;16.45;70.30;102643.75;5030061;28;9429;-66
2023/10/08 10:22:43;;;;;;;;;0.00;0.00;;;;;16.42;70.76;102646.84;5012221;28;8838;-65
2023/10/08 10:25:17;;;;;;;;;0.00;0.00;;;;;16.48;70.74;102660.50;5030097;28;8850;-65
2023/10/08 10:27:55;;;;;;;;;0.00;0.00;;;;;16.48;70.80;102651.50;5029745;28;8975;-66
2023/10/08 10:30:23;;;;;;;;;0.75;0.00;;;;;16.46;70.86;102645.44;5030196;28;8846;-66
2023/10/08 10:32:54;;;;;;;;;0.00;0.00;;;;;16.54;70.58;102646.16;5012039;28;8852;-66
2023/10/08 10:35:21;;;;;;;;;0.00;0.00;;;;;16.51;70.58;102641.09;5029896;28;8998;-65
2023/10/08 10:37:55;;;;;;;;;0.00;0.00;;;;;16.50;70.47;102634.00;5029285;28;8903;-66
2023/10/08 10:40:40;;;;;;;;;0.00;0.00;;;;;16.31;70.32;102635.41;5029769;28;8972;-66
2023/10/08 10:43:09;;;;;;;;;0.00;0.00;;;;;16.22;70.81;102633.81;5009959;28;8978;-66
2023/10/08 10:45:46;;;;;;;;;0.00;0.00;;;;;16.24;71.10;102622.75;5009748;28;8983;-66
2023/10/08 10:56:44;;;;;;;;;0.00;0.00;;;;;16.60;71.04;102622.81;4948692;28;8862;-66
2023/10/08 10:59:26;;;;;;;;;0.25;0.25;;;;;16.60;70.19;102630.13;4948894;28;8848;-65
2023/10/08 11:02:05;;;;;;;;;0.00;0.00;;;;;16.61;70.40;102629.94;4996542;28;8860;-65
2023/10/08 11:04:33;;;;;;;;;0.00;0.00;;;;;16.64;70.42;102634.16;5029462;28;8834;-65
2023/10/08 11:07:00;;;;;;;;;0.00;0.00;;;;;16.63;70.41;102638.75;5028733;28;8917;-66
2023/10/08 11:09:37;;;;;;;;;0.00;0.00;;;;;16.63;70.68;102637.91;5011203;28;9575;-66
2023/10/08 11:12:12;;;;;;;;;0.25;0.00;;;;;16.58;70.39;102626.75;5028947;28;8937;-67
2023/10/08 11:14:42;;;;;;;;;0.50;0.00;;;;;16.59;70.75;102629.28;5029147;28;8846;-66
2023/10/08 11:17:16;;;;;;;;;0.00;0.00;;;;;16.66;71.21;102634.81;5028848;28;8857;-66
2023/10/08 11:19:46;;;;;;;;;0.00;0.00;;;;;16.72;70.92;102625.88;4994856;28;8838;-66
2023/10/08 11:22:16;;;;;;;;;0.00;0.00;;;;;16.78;70.98;102634.16;5010760;28;8866;-67
2023/10/08 11:24:47;;;;;;;;;2.75;2.75;;;;;16.83;71.04;102622.69;5028440;28;8826;-66
2023/10/08 11:27:28;;;;;;;;;0.00;0.00;;;;;16.90;70.89;102629.06;4994026;28;9560;-65
2023/10/08 11:29:57;;;;;;;;;0.00;0.00;;;;;16.96;70.51;102622.00;5028567;28;8940;-66
2023/10/08 11:32:25;;;;;;;;;0.00;0.00;;;;;16.96;70.37;102622.00;5010612;28;8860;-65
2023/10/08 11:34:59;;;;;;;;;0.75;0.75;;;;;16.88;70.34;102616.66;5028466;28;8842;-65
2023/10/08 11:37:30;;;;;;;;;0.00;0.00;;;;;16.90;70.44;102609.19;5010550;28;8852;-66
2023/10/08 11:39:59;;;;;;;;;1.00;1.00;;;;;16.96;70.44;102611.09;5010842;28;8822;-65
2023/10/08 11:47:53;;;;;;;;;0.00;0.00;;;;;17.05;70.50;102588.16;5027928;28;8846;-66
2023/10/08 11:50:19;;;;;;;;;0.00;0.00;;;;;17.10;70.35;102588.47;5026719;28;8976;-66
2023/10/08 11:52:46;;;;;;;;;0.00;0.00;;;;;17.12;70.78;102572.75;5027712;28;8833;-65
2023/10/08 11:55:18;;;;;;;;;0.00;0.00;;;;;17.15;70.45;102572.38;5028054;28;8822;-65
2023/10/08 11:57:50;;;;;;;;;0.00;0.00;;;;;17.11;70.06;102565.63;5028264;28;8862;-66
2023/10/08 12:00:18;;;;;;;;;0.00;0.00;;;;;17.10;70.20;102557.69;5028214;28;8841;-66
2023/10/08 12:02:57;;;;;;;;;0.75;0.75;;;;;17.12;70.10;102567.31;5028216;28;8901;-66
2023/10/08 12:05:24;;;;;;;;;0.00;0.00;;;;;17.12;70.19;102561.88;5028508;28;8829;-65
2023/10/08 12:07:52;;;;;;;;;0.75;0.75;;;;;17.14;69.87;102553.53;5010157;28;8846;-66
2023/10/08 12:10:22;;;;;;;;;0.75;0.00;;;;;17.13;69.81;102558.09;5028008;28;8903;-65
2023/10/08 12:12:53;;;;;;;;;1.00;0.25;;;;;17.13;70.07;102557.28;5028181;28;8955;-65
2023/10/08 12:15:21;;;;;;;;;1.00;1.00;;;;;17.11;69.98;102560.19;5028241;28;8870;-66
2023/10/08 12:18:08;;;;;;;;;0.25;0.25;;;;;17.12;70.00;102553.72;5027809;28;8883;-66
2023/10/08 12:20:37;;;;;;;;;0.75;0.75;;;;;17.09;70.20;102545.09;5010133;28;8960;-66
2023/10/08 12:23:10;;;;;;;;;2.50;1.75;;;;;17.08;70.28;102537.97;5027857;28;8935;-65
2023/10/08 12:25:37;;;;;;;;;2.00;2.00;;;;;17.10;70.14;102528.59;5013509;28;8830;-66
2023/10/08 12:28:06;;;;;;;;;0.00;0.00;;;;;17.14;69.92;102526.31;5031453;28;8845;-66
2023/10/08 12:30:41;;;;;;;;;0.50;0.50;;;;;17.17;70.17;102520.47;5031984;28;8849;-66
2023/10/08 12:33:12;;;;;;;;;0.25;0.25;;;;;17.20;70.15;102514.63;5032209;28;8837;-66
2023/10/08 12:35:40;;;;;;;;;1.00;1.00;;;;;17.20;70.19;102511.91;5031992;28;8965;-66
2023/10/08 12:38:08;;;;;;;;;1.00;1.00;;;;;17.20;70.16;102512.75;5031629;28;8858;-66
2023/10/08 12:40:48;;;;;;;;;2.75;1.00;;;;;17.22;70.15;102509.84;5031402;28;8814;-65
2023/10/08 12:43:18;;;;;;;;;1.00;1.00;;;;;17.22;70.10;102527.00;5012090;28;8876;-66
2023/10/08 12:45:51;;;;;;;;;2.25;1.25;;;;;17.27;70.43;102521.81;4994260;28;8832;-66
2023/10/08 12:48:26;;;;;;;;;4.00;1.00;;;;;17.29;70.55;102517.00;5011558;28;8871;-65
2023/10/08 12:50:57;;;;;;;;;0.00;0.00;;;;;17.30;70.68;102515.97;4994401;28;9539;-65
2023/10/08 12:53:36;;;;;;;;;0.00;0.00;;;;;17.28;70.67;102512.59;4994220;28;8978;-66
2023/10/08 12:56:07;;;;;;;;;4.00;2.00;;;;;17.30;70.65;102510.53;4993597;28;8860;-66
2023/10/08 12:58:41;;;;;;;;;0.00;0.00;;;;;17.33;70.62;102516.59;5010538;28;8883;-65
2023/10/08 13:01:09;;;;;;;;;2.25;1.00;;;;;17.33;70.81;102516.59;4993585;28;8987;-66
2023/10/08 13:04:26;;;;;;;;;1.00;1.00;;;;;17.36;71.14;102510.78;5011158;28;8848;-66
2023/10/08 13:06:30;;;;;;;;;1.75;1.25;;;;;17.37;71.32;102512.44;5007045;28;8883;-66
2023/10/08 13:08:59;;;;;;;;;2.00;1.00;;;;;17.40;71.02;102515.63;4993643;28;8941;-68
2023/10/08 13:11:29;;;;;;;;;2.00;2.00;;;;;17.40;71.58;102514.78;5011366;28;8848;-68
2023/10/08 13:13:56;;;;;;;;;1.00;1.00;;;;;17.40;71.46;102526.50;5011089;28;8840;-68